createdAt,value
2017-05-08T00:06:27.063Z,0
2017-05-08T00:16:42.565Z,0
2017-05-08T00:26:58.193Z,0
2017-05-08T00:37:12.771Z,0
2017-05-08T00:47:26.508Z,0
2017-05-08T00:57:40.503Z,0
2017-05-08T01:07:55.271Z,0
2017-05-08T01:18:09.878Z,0
2017-05-08T01:28:24.081Z,0
2017-05-08T01:38:39.461Z,0
2017-05-08T01:48:53.655Z,0
2017-05-08T01:59:07.845Z,0
2017-05-08T02:09:23.394Z,0
2017-05-08T02:19:37.596Z,0
2017-05-08T02:29:53.034Z,0
2017-05-08T02:40:07.789Z,0
2017-05-08T02:50:23.141Z,0
2017-05-08T03:00:36.886Z,0
2017-05-08T03:10:50.642Z,0
2017-05-08T03:21:05.667Z,4
2017-05-08T03:31:21.291Z,16
2017-05-08T03:41:35.313Z,44
2017-05-08T03:51:49.878Z,156
2017-05-08T04:02:05.532Z,256
2017-05-08T04:12:20.287Z,416
2017-05-08T04:22:34.167Z,672
2017-05-08T04:32:48.183Z,1432
2017-05-08T04:43:01.939Z,1764
2017-05-08T04:53:16.694Z,1520
2017-05-08T05:03:31.816Z,2212
2017-05-08T05:13:45.863Z,3548
2017-05-08T05:23:59.896Z,6912
2017-05-08T05:34:15.287Z,2940
2017-05-08T05:44:30.445Z,3816
2017-05-08T05:54:45.729Z,4508
2017-05-08T06:05:01.082Z,4104
2017-05-08T06:15:16.205Z,4956
2017-05-08T06:25:31.559Z,6460
2017-05-08T06:35:46.266Z,6604
2017-05-08T06:46:01.351Z,6820
2017-05-08T06:56:16.290Z,8156
2017-05-08T07:06:31.527Z,9668
2017-05-08T07:16:47.248Z,8004
2017-05-08T07:27:02.641Z,12688
2017-05-08T07:37:17.007Z,11872
2017-05-08T07:47:32.021Z,13348
2017-05-08T07:57:45.810Z,13492
2017-05-08T08:08:00.458Z,15372
2017-05-08T08:18:15.429Z,17056
2017-05-08T08:28:30.135Z,18432
2017-05-08T08:38:44.201Z,16584
2017-05-08T08:48:59.160Z,20192
2017-05-08T08:59:12.956Z,17184
2017-05-08T09:09:27.445Z,18912
2017-05-08T09:19:41.430Z,18880
2017-05-08T09:29:56.624Z,21664
2017-05-08T09:40:12.215Z,24416
2017-05-08T09:50:27.035Z,24672
2017-05-08T10:00:42.097Z,28640
2017-05-08T10:10:56.587Z,19936
2017-05-08T10:21:12.206Z,14424
2017-05-08T10:31:27.483Z,15732
2017-05-08T10:41:41.348Z,15244
2017-05-08T10:51:56.716Z,46592
2017-05-08T11:02:11.310Z,37984
2017-05-08T11:12:27.121Z,17888
2017-05-08T11:22:42.035Z,11988
2017-05-08T11:32:56.226Z,16148
2017-05-08T11:43:10.186Z,13860
2017-05-08T11:53:24.688Z,12008
2017-05-08T12:03:39.564Z,19552
2017-05-08T12:13:53.502Z,14136
2017-05-08T12:24:08.964Z,19040
2017-05-08T12:34:23.466Z,19232
2017-05-08T12:44:38.127Z,10868
2017-05-08T12:54:53.650Z,12880
2017-05-08T13:05:08.039Z,11316
2017-05-08T13:15:23.130Z,14764
2017-05-08T13:25:37.752Z,12760
2017-05-08T13:35:52.027Z,20832
2017-05-08T13:46:07.446Z,18880
2017-05-08T13:56:21.454Z,11344
2017-05-08T14:06:35.633Z,12660
2017-05-08T14:16:51.345Z,30016
2017-05-08T14:27:05.266Z,24000
2017-05-08T14:37:19.081Z,74048
2017-05-08T14:47:34.321Z,50272
2017-05-08T14:57:48.239Z,11224
2017-05-08T15:08:03.467Z,38912
2017-05-08T15:18:18.968Z,62688
2017-05-08T15:28:34.090Z,56608
2017-05-08T15:38:48.505Z,67040
2017-05-08T15:49:02.933Z,41024
2017-05-08T15:59:18.310Z,28768
2017-05-08T16:09:33.212Z,26720
2017-05-08T16:19:47.152Z,11932
2017-05-08T16:30:01.608Z,13824
2017-05-08T16:40:16.725Z,15408
2017-05-08T16:50:30.738Z,17664
2017-05-08T17:00:45.279Z,15500
2017-05-08T17:11:00.239Z,32704
2017-05-08T17:21:15.226Z,6712
2017-05-08T17:31:29.805Z,8436
2017-05-08T17:41:43.731Z,18272
2017-05-08T17:51:58.370Z,7352
2017-05-08T18:02:13.186Z,7216
2017-05-08T18:12:28.529Z,4804
2017-05-08T18:22:42.630Z,3620
2017-05-08T18:32:57.325Z,2472
2017-05-08T18:43:12.012Z,1756
2017-05-08T18:53:27.168Z,1136
2017-05-08T19:03:42.188Z,548
2017-05-08T19:13:57.282Z,220
2017-05-08T19:24:12.981Z,68
2017-05-08T19:34:27.157Z,16
2017-05-08T19:44:41.692Z,0
2017-05-08T19:54:57.308Z,0
2017-05-08T20:05:11.767Z,0
2017-05-08T20:15:26.290Z,0
2017-05-08T20:25:40.144Z,0
2017-05-08T20:35:55.462Z,0
2017-05-08T20:46:09.201Z,0
2017-05-08T20:56:23.161Z,0
2017-05-08T21:06:37.803Z,0
2017-05-08T21:16:51.785Z,0
2017-05-08T21:27:05.596Z,0
2017-05-08T21:37:19.870Z,0
2017-05-08T21:47:33.996Z,0
2017-05-08T21:57:47.730Z,0
2017-05-08T22:08:01.702Z,0
2017-05-08T22:18:15.812Z,0
2017-05-08T22:28:30.419Z,0
2017-05-08T22:38:45.961Z,0
2017-05-08T22:48:59.694Z,0
2017-05-08T22:59:14.277Z,0
2017-05-08T23:09:29.879Z,0
2017-05-08T23:19:45.141Z,0
2017-05-08T23:30:00.355Z,0
2017-05-08T23:40:14.967Z,0
2017-05-08T23:50:29.293Z,0
